createdAt,value
2022-11-15T00:00:24.837Z,8.70
2022-11-15T00:03:19.868Z,7.95
2022-11-15T00:06:11.843Z,7.78
2022-11-15T00:09:03.606Z,7.10
2022-11-15T00:11:54.664Z,7.50
2022-11-15T00:14:45.101Z,6.75
2022-11-15T00:17:35.306Z,6.72
2022-11-15T00:20:25.655Z,7.62
2022-11-15T00:23:16.141Z,7.22
2022-11-15T00:26:06.419Z,7.25
2022-11-15T00:28:56.823Z,8.95
2022-11-15T00:31:46.971Z,8.95
2022-11-15T00:34:38.282Z,10.10
2022-11-15T00:37:30.407Z,10.08
2022-11-15T00:40:21.181Z,11.53
2022-11-15T00:43:11.787Z,11.10
2022-11-15T00:46:03.498Z,11.25
2022-11-15T00:48:53.947Z,10.88
2022-11-15T00:51:44.362Z,11.88
2022-11-15T00:54:35.650Z,10.80
2022-11-15T00:57:27.723Z,10.93
2022-11-15T01:00:18.811Z,11.35
2022-11-15T01:03:09.513Z,10.78
2022-11-15T01:06:02.402Z,10.53
2022-11-15T01:08:54.502Z,10.82
2022-11-15T01:11:45.034Z,9.53
2022-11-15T01:14:37.992Z,10.18
2022-11-15T01:17:28.164Z,10.25
2022-11-15T01:20:19.568Z,11.73
2022-11-15T01:23:10.175Z,12.30
2022-11-15T01:26:24.360Z,12.00
2022-11-15T01:29:14.502Z,11.68
2022-11-15T01:32:05.853Z,12.60
2022-11-15T01:34:56.476Z,12.50
2022-11-15T01:37:47.723Z,11.57
2022-11-15T01:40:39.229Z,10.72
2022-11-15T01:43:34.484Z,9.13
2022-11-15T01:46:47.019Z,9.98
2022-11-15T01:49:39.780Z,9.05
2022-11-15T01:52:33.432Z,8.73
2022-11-15T01:55:27.120Z,8.20
2022-11-15T01:58:19.264Z,7.25
2022-11-15T02:01:10.458Z,7.05
2022-11-15T02:04:06.537Z,7.17
2022-11-15T02:06:58.234Z,6.62
2022-11-15T02:09:48.791Z,6.60
2022-11-15T02:12:39.201Z,6.78
2022-11-15T02:15:33.922Z,7.25
2022-11-15T02:18:37.830Z,6.67
2022-11-15T02:22:01.809Z,7.30
2022-11-15T02:25:24.195Z,6.75
2022-11-15T02:28:34.625Z,6.00
2022-11-15T02:31:39.377Z,6.47
2022-11-15T02:35:14.435Z,5.50
2022-11-15T02:38:29.207Z,5.47
2022-11-15T02:41:31.842Z,6.37
2022-11-15T02:44:29.132Z,6.10
2022-11-15T02:47:20.206Z,6.05
2022-11-15T02:50:12.894Z,6.87
2022-11-15T02:53:04.870Z,6.17
2022-11-15T02:55:55.760Z,7.00
2022-11-15T02:58:53.740Z,7.28
2022-11-15T03:02:12.813Z,7.22
2022-11-15T03:05:29.279Z,7.70
2022-11-15T03:08:40.680Z,7.35
2022-11-15T03:11:31.652Z,7.62
2022-11-15T03:14:32.240Z,8.40
2022-11-15T03:17:32.387Z,8.38
2022-11-15T03:20:22.780Z,8.83
2022-11-15T03:23:14.691Z,8.48
2022-11-15T03:26:05.712Z,8.48
2022-11-15T03:29:08.504Z,9.55
2022-11-15T03:32:03.531Z,8.53
2022-11-15T03:35:20.583Z,8.78
2022-11-15T03:38:29.009Z,9.55
2022-11-15T03:41:30.148Z,9.28
2022-11-15T03:45:02.850Z,9.10
2022-11-15T03:48:04.357Z,9.75
2022-11-15T03:50:54.654Z,9.75
2022-11-15T03:53:45.280Z,10.38
2022-11-15T03:56:37.183Z,10.03
2022-11-15T03:59:27.770Z,9.78
2022-11-15T04:02:18.254Z,8.98
2022-11-15T04:05:09.078Z,10.05
2022-11-15T04:08:01.165Z,9.88
2022-11-15T04:10:54.861Z,10.20
2022-11-15T04:13:46.975Z,10.78
2022-11-15T04:16:43.566Z,10.35
2022-11-15T04:19:49.298Z,11.63
2022-11-15T04:22:58.943Z,11.65
2022-11-15T04:25:51.929Z,11.75
2022-11-15T04:29:01.205Z,11.85
2022-11-15T04:31:51.832Z,13.88
2022-11-15T04:34:44.525Z,13.55
2022-11-15T04:37:35.005Z,13.70
2022-11-15T04:40:28.012Z,13.25
2022-11-15T04:43:18.319Z,13.22
2022-11-15T04:46:09.292Z,13.03
2022-11-15T04:49:01.127Z,14.07
2022-11-15T04:51:51.823Z,13.50
2022-11-15T04:54:43.836Z,13.68
2022-11-15T04:57:35.651Z,14.60
2022-11-15T05:00:26.934Z,14.58
2022-11-15T05:03:35.989Z,15.10
2022-11-15T05:06:26.288Z,15.38
2022-11-15T05:09:20.624Z,15.43
2022-11-15T05:12:11.262Z,16.07
2022-11-15T05:15:02.560Z,14.60
2022-11-15T05:17:53.096Z,16.35
2022-11-15T05:20:45.127Z,14.98
2022-11-15T05:23:35.763Z,15.50
2022-11-15T05:26:27.903Z,16.23
2022-11-15T05:29:19.446Z,15.90
2022-11-15T05:32:11.445Z,15.72
2022-11-15T05:35:02.683Z,15.13
2022-11-15T05:37:52.916Z,15.32
2022-11-15T05:40:44.494Z,15.58
2022-11-15T05:43:35.749Z,15.55
2022-11-15T05:46:27.414Z,14.50
2022-11-15T05:49:20.792Z,16.17
2022-11-15T05:52:12.842Z,16.65
2022-11-15T05:55:04.541Z,16.85
2022-11-15T05:57:55.136Z,17.07
2022-11-15T06:00:46.476Z,15.90
2022-11-15T06:03:37.101Z,18.80
2022-11-15T06:06:29.153Z,18.75
2022-11-15T06:09:19.639Z,18.98
2022-11-15T06:12:10.129Z,18.40
2022-11-15T06:15:01.380Z,19.17
2022-11-15T06:17:54.325Z,18.32
2022-11-15T06:20:45.145Z,17.70
2022-11-15T06:23:36.773Z,16.87
2022-11-15T06:26:27.442Z,18.10
2022-11-15T06:29:18.493Z,17.82
2022-11-15T06:32:09.136Z,18.15
2022-11-15T06:35:00.633Z,18.27
2022-11-15T06:37:51.127Z,18.17
2022-11-15T06:40:42.305Z,18.52
2022-11-15T06:43:33.201Z,18.62
2022-11-15T06:46:23.677Z,17.62
2022-11-15T06:49:14.178Z,18.62
2022-11-15T06:52:04.676Z,18.40
2022-11-15T06:54:54.819Z,18.12
2022-11-15T06:57:52.614Z,16.05
2022-11-15T07:00:44.422Z,15.00
2022-11-15T07:03:37.458Z,14.03
2022-11-15T07:06:29.804Z,14.07
2022-11-15T07:09:23.022Z,13.80
2022-11-15T07:12:13.416Z,14.53
2022-11-15T07:15:04.434Z,13.28
2022-11-15T07:17:54.866Z,13.45
2022-11-15T07:20:45.047Z,13.35
2022-11-15T07:23:35.648Z,12.98
2022-11-15T07:26:25.859Z,14.20
2022-11-15T07:29:17.165Z,14.25
2022-11-15T07:32:07.926Z,14.23
2022-11-15T07:34:59.991Z,14.13
2022-11-15T07:38:03.501Z,15.05
2022-11-15T07:41:03.709Z,14.93
2022-11-15T07:43:55.312Z,14.23
2022-11-15T07:46:45.666Z,15.18
2022-11-15T07:49:36.049Z,14.55
2022-11-15T07:52:27.218Z,16.40
2022-11-15T07:55:18.086Z,16.95
2022-11-15T07:58:10.513Z,17.37
2022-11-15T08:01:02.818Z,17.55
2022-11-15T08:03:52.938Z,18.55
2022-11-15T08:06:44.694Z,18.40
2022-11-15T08:09:35.455Z,18.27
2022-11-15T08:12:26.867Z,18.80
2022-11-15T08:15:18.162Z,19.32
2022-11-15T08:18:17.326Z,18.15
2022-11-15T08:21:07.900Z,20.75
2022-11-15T08:23:58.556Z,19.73
2022-11-15T08:26:49.228Z,20.95
2022-11-15T08:29:39.786Z,21.75
2022-11-15T08:32:30.537Z,21.37
2022-11-15T08:35:27.684Z,20.32
2022-11-15T08:38:15.065Z,19.62
2022-11-15T08:41:07.302Z,18.50
2022-11-15T08:43:57.694Z,17.50
2022-11-15T08:46:51.362Z,16.93
2022-11-15T08:49:42.887Z,18.25
2022-11-15T08:52:33.752Z,17.50
2022-11-15T08:55:24.966Z,17.45
2022-11-15T08:58:15.727Z,16.48
2022-11-15T09:01:07.385Z,16.42
2022-11-15T09:03:58.154Z,18.92
2022-11-15T09:06:50.337Z,18.50
2022-11-15T09:09:41.017Z,19.12
2022-11-15T09:12:31.460Z,18.12
2022-11-15T09:15:21.923Z,18.02
2022-11-15T09:18:12.778Z,18.77
2022-11-15T09:21:04.041Z,18.32
2022-11-15T09:23:56.312Z,17.32
2022-11-15T09:26:47.111Z,16.90
2022-11-15T09:29:37.748Z,15.85
2022-11-15T09:32:38.822Z,15.60
2022-11-15T09:35:25.189Z,14.85
2022-11-15T09:38:15.793Z,13.75
2022-11-15T09:41:34.794Z,14.35
2022-11-15T09:44:41.986Z,14.45
2022-11-15T09:47:59.677Z,15.03
2022-11-15T09:50:54.737Z,13.98
2022-11-15T09:54:30.817Z,15.08
2022-11-15T09:56:32.412Z,14.87
2022-11-15T09:59:22.185Z,15.15
2022-11-15T13:06:58.856Z,25.60
2022-11-15T13:09:42.364Z,22.70
2022-11-15T13:12:37.258Z,22.95
2022-11-15T13:15:42.837Z,21.55
2022-11-15T13:18:47.576Z,23.15
2022-11-15T13:22:04.358Z,22.00
2022-11-15T13:24:40.072Z,21.60
2022-11-15T13:27:19.862Z,21.37
2022-11-15T13:29:52.298Z,21.80
2022-11-15T13:32:24.775Z,21.40
2022-11-15T13:34:58.995Z,19.90
2022-11-15T13:37:33.018Z,22.17
2022-11-15T13:40:31.919Z,21.00
2022-11-15T13:43:33.457Z,21.77
2022-11-15T13:46:26.771Z,22.32
2022-11-15T13:49:09.035Z,22.17
2022-11-15T13:51:52.818Z,23.02
2022-11-15T13:54:48.287Z,21.17
2022-11-15T13:57:29.778Z,23.47
2022-11-15T14:02:55.659Z,22.22
2022-11-15T14:05:29.776Z,23.92
2022-11-15T14:08:07.495Z,22.42
2022-11-15T14:10:40.446Z,22.25
2022-11-15T14:13:32.697Z,22.82
2022-11-15T14:16:22.857Z,23.27
2022-11-15T14:18:56.939Z,22.90
2022-11-15T14:21:29.710Z,23.40
2022-11-15T14:24:22.640Z,22.42
2022-11-15T14:26:54.995Z,22.82
2022-11-15T14:29:31.876Z,22.27
2022-11-15T14:32:26.179Z,23.52
2022-11-15T14:35:02.328Z,24.43
2022-11-15T14:37:39.843Z,24.92
2022-11-15T14:40:20.002Z,23.83
2022-11-15T14:42:52.481Z,25.10
2022-11-15T14:45:27.526Z,24.40
2022-11-15T14:48:00.107Z,25.08
2022-11-15T14:50:32.952Z,25.85
2022-11-15T14:53:06.780Z,25.45
2022-11-15T14:55:39.226Z,25.33
2022-11-15T14:58:12.212Z,24.90
2022-11-15T15:00:45.405Z,26.17
2022-11-15T15:03:18.238Z,23.65
2022-11-15T15:05:50.993Z,24.65
2022-11-15T15:08:25.310Z,25.87
2022-11-15T15:10:57.904Z,27.48
2022-11-15T15:13:31.552Z,24.90
2022-11-15T15:16:04.306Z,25.02
2022-11-15T15:18:38.142Z,28.02
2022-11-15T15:21:37.236Z,27.77
2022-11-15T15:24:07.541Z,28.27
2022-11-15T15:26:40.319Z,28.12
2022-11-15T15:29:13.212Z,28.52
2022-11-15T15:31:46.892Z,27.17
2022-11-15T15:34:19.676Z,27.95
2022-11-15T15:37:25.281Z,27.75
2022-11-15T15:39:59.201Z,26.75
2022-11-15T15:42:32.681Z,25.90
2022-11-15T15:45:06.876Z,27.07
2022-11-15T15:47:40.824Z,25.27
2022-11-15T15:50:30.910Z,26.75
2022-11-15T15:53:06.142Z,26.85
2022-11-15T15:55:39.552Z,26.60
2022-11-15T15:58:12.463Z,24.63
2022-11-15T16:00:45.083Z,24.92
2022-11-15T16:03:17.825Z,25.00
2022-11-15T16:05:50.363Z,24.52
2022-11-15T16:08:31.966Z,24.10
2022-11-15T16:11:04.667Z,24.55
2022-11-15T16:16:11.844Z,22.87
2022-11-15T16:18:45.096Z,23.77
2022-11-15T16:21:18.152Z,24.35
2022-11-15T16:23:51.288Z,23.95
2022-11-15T16:26:43.898Z,24.32
2022-11-15T16:29:17.562Z,23.85
2022-11-15T16:34:30.543Z,23.07
2022-11-15T16:37:02.400Z,22.37
2022-11-15T16:39:36.157Z,23.52
2022-11-15T16:42:10.725Z,23.32
2022-11-15T16:47:23.154Z,23.30
2022-11-15T16:49:55.592Z,23.62
2022-11-15T16:52:28.368Z,24.52
2022-11-15T16:55:00.848Z,22.60
2022-11-15T16:57:34.264Z,22.77
2022-11-15T17:00:08.446Z,22.75
2022-11-15T17:02:41.354Z,22.62
2022-11-15T17:05:18.830Z,22.48
2022-11-15T17:07:50.584Z,21.50
2022-11-15T17:10:25.796Z,21.75
2022-11-15T17:12:58.471Z,22.37
2022-11-15T17:15:30.837Z,23.75
2022-11-15T18:08:15.255Z,22.32
2022-11-15T18:10:43.370Z,21.85
2022-11-15T18:13:15.755Z,20.95
2022-11-15T18:15:56.452Z,21.52
2022-11-15T18:18:34.612Z,21.12
2022-11-15T18:21:15.326Z,22.40
2022-11-15T18:23:48.437Z,22.90
2022-11-15T18:26:26.638Z,21.40
2022-11-15T18:28:57.925Z,22.25
2022-11-15T18:31:31.735Z,21.48
2022-11-15T18:34:04.096Z,20.95
2022-11-15T18:36:38.603Z,22.55
2022-11-15T18:39:16.630Z,22.30
2022-11-15T18:41:49.139Z,20.08
2022-11-15T18:44:21.555Z,20.65
2022-11-15T18:46:55.883Z,20.17
2022-11-15T18:49:28.506Z,20.72
2022-11-15T18:52:00.949Z,21.62
2022-11-15T18:54:33.531Z,22.00
2022-11-15T18:57:06.063Z,20.37
2022-11-15T18:59:38.620Z,21.55
2022-11-15T19:02:13.542Z,21.48
2022-11-15T19:04:45.964Z,22.50
2022-11-15T19:07:18.449Z,21.70
2022-11-15T19:09:51.097Z,23.87
2022-11-15T19:12:23.549Z,21.35
2022-11-15T19:14:56.978Z,21.62
2022-11-15T19:17:31.275Z,21.90
2022-11-15T19:20:04.671Z,19.82
2022-11-15T19:22:38.314Z,21.25
2022-11-15T19:25:28.966Z,20.55
2022-11-15T19:28:01.309Z,19.55
2022-11-15T19:30:34.356Z,21.02
2022-11-15T19:33:06.879Z,21.95
2022-11-15T19:35:40.075Z,20.80
2022-11-15T19:38:16.133Z,20.02
2022-11-15T19:40:50.058Z,20.65
2022-11-15T19:43:22.581Z,20.27
2022-11-15T19:46:02.304Z,19.98
2022-11-15T19:48:34.577Z,20.90
2022-11-15T19:51:09.406Z,21.25
2022-11-15T19:53:42.515Z,19.98
2022-11-15T19:56:18.153Z,20.68
2022-11-15T19:58:54.826Z,20.88
2022-11-15T20:01:33.516Z,20.70
2022-11-15T20:04:06.237Z,19.87
2022-11-15T20:07:00.204Z,20.52
2022-11-15T20:09:33.319Z,19.70
2022-11-15T20:12:06.685Z,19.15
2022-11-15T20:14:39.661Z,19.65
2022-11-15T20:17:12.283Z,19.82
2022-11-15T20:19:45.218Z,19.60
2022-11-15T20:22:17.975Z,18.98
2022-11-15T20:24:50.982Z,18.20
2022-11-15T20:27:23.507Z,18.62
2022-11-15T20:29:56.049Z,19.48
2022-11-15T20:32:28.459Z,17.42
2022-11-15T20:35:01.245Z,19.20
2022-11-15T20:37:34.025Z,19.57
2022-11-15T20:40:07.716Z,18.55
2022-11-15T20:42:41.599Z,19.45
2022-11-15T20:45:14.793Z,18.02
2022-11-15T20:47:47.544Z,18.42
2022-11-15T20:50:40.865Z,19.17
2022-11-15T20:52:57.866Z,18.65
2022-11-15T20:55:29.570Z,18.75
2022-11-15T20:58:02.968Z,18.57
2022-11-15T21:00:37.079Z,19.45
2022-11-15T21:03:27.605Z,18.85
2022-11-15T21:06:01.666Z,19.27
2022-11-15T21:08:53.222Z,20.08
2022-11-15T21:11:43.967Z,18.87
2022-11-15T21:14:20.796Z,19.00
2022-11-15T21:16:54.114Z,18.48
2022-11-15T21:19:32.613Z,19.25
2022-11-15T21:22:02.588Z,20.15
2022-11-15T21:24:35.102Z,19.60
2022-11-15T21:27:08.336Z,19.12
2022-11-15T21:29:40.878Z,18.52
2022-11-15T21:32:13.394Z,19.73
2022-11-15T21:34:47.262Z,19.67
2022-11-15T21:39:51.801Z,18.70
2022-11-15T21:42:24.247Z,18.87
2022-11-15T21:44:57.150Z,19.25
2022-11-15T21:47:29.616Z,18.95
2022-11-15T21:50:02.333Z,19.55
2022-11-15T21:52:34.853Z,18.85
2022-11-15T21:55:08.210Z,18.73
2022-11-15T21:57:40.865Z,18.37
2022-11-15T22:00:34.649Z,18.37
2022-11-15T22:03:07.071Z,19.07
2022-11-15T22:05:40.403Z,18.52
2022-11-15T22:08:12.974Z,18.80
2022-11-15T22:10:51.230Z,18.75
2022-11-15T22:13:25.338Z,18.12
2022-11-15T22:15:58.434Z,19.52
2022-11-15T22:18:31.706Z,18.42
2022-11-15T22:21:13.148Z,18.02
2022-11-15T22:23:46.738Z,18.60
2022-11-15T22:26:23.765Z,17.92
2022-11-15T22:28:56.650Z,17.60
2022-11-15T22:31:29.594Z,17.65
2022-11-15T22:34:02.331Z,18.00
2022-11-15T22:36:52.271Z,17.52
2022-11-15T22:39:09.748Z,17.80
2022-11-15T22:41:42.636Z,17.55
2022-11-15T22:44:15.977Z,17.37
2022-11-15T22:46:48.674Z,18.27
2022-11-15T22:49:21.487Z,17.62
2022-11-15T22:51:54.307Z,18.12
2022-11-15T22:54:27.442Z,19.25
2022-11-15T22:57:00.509Z,18.12
2022-11-15T22:59:35.384Z,16.90
2022-11-15T23:02:08.559Z,17.40
2022-11-15T23:04:42.166Z,17.85
2022-11-15T23:07:14.943Z,17.37
2022-11-15T23:09:52.131Z,16.73
2022-11-15T23:12:42.285Z,17.73
2022-11-15T23:15:15.850Z,17.52
2022-11-15T23:17:49.094Z,17.17
2022-11-15T23:20:42.334Z,18.12
2022-11-15T23:22:56.807Z,16.97
2022-11-15T23:25:29.745Z,18.73
2022-11-15T23:28:04.691Z,17.50
2022-11-15T23:30:56.729Z,18.07
2022-11-15T23:33:47.450Z,18.17
2022-11-15T23:36:20.356Z,18.23
2022-11-15T23:38:53.729Z,18.92
2022-11-15T23:41:26.810Z,18.70
2022-11-15T23:43:59.973Z,18.90
2022-11-15T23:46:33.325Z,18.25
2022-11-15T23:49:06.103Z,18.82
2022-11-15T23:51:39.558Z,18.15
2022-11-15T23:54:12.481Z,19.40
2022-11-15T23:56:45.353Z,18.23
2022-11-15T23:59:20.477Z,16.50
